sensor_id;sensor_type;location;lat;lon;timestamp;temperature;humidity
26595;DHT22;14238;49.496;8.154;2024-03-23T15:20:41;8.40;99.90
26595;DHT22;14238;49.496;8.154;2024-03-23T15:23:07;8.30;99.90
26595;DHT22;14238;49.496;8.154;2024-03-23T15:25:33;7.90;99.90
26595;DHT22;14238;49.496;8.154;2024-03-23T15:27:59;6.90;99.90
26595;DHT22;14238;49.496;8.154;2024-03-23T15:30:26;6.70;99.90
26595;DHT22;14238;49.496;8.154;2024-03-23T15:32:51;6.60;99.90
26595;DHT22;14238;49.496;8.154;2024-03-23T15:35:18;6.20;99.90
26595;DHT22;14238;49.496;8.154;2024-03-23T15:37:44;6.70;99.90
26595;DHT22;14238;49.496;8.154;2024-03-23T15:40:10;7.00;99.90
26595;DHT22;14238;49.496;8.154;2024-03-23T15:42:36;7.30;99.90
26595;DHT22;14238;49.496;8.154;2024-03-23T15:45:02;6.80;99.90
26595;DHT22;14238;49.496;8.154;2024-03-23T15:47:29;7.20;99.90
26595;DHT22;14238;49.496;8.154;2024-03-23T15:49:54;7.10;99.90
26595;DHT22;14238;49.496;8.154;2024-03-23T15:52:21;7.20;99.90
26595;DHT22;14238;49.496;8.154;2024-03-23T15:54:46;7.40;99.90
26595;DHT22;14238;49.496;8.154;2024-03-23T15:57:12;7.80;99.90
26595;DHT22;14238;49.496;8.154;2024-03-23T15:59:40;7.80;99.90
26595;DHT22;14238;49.496;8.154;2024-03-23T16:02:06;7.80;99.90
26595;DHT22;14238;49.496;8.154;2024-03-23T16:04:32;7.90;99.90
26595;DHT22;14238;49.496;8.154;2024-03-23T16:06:57;7.80;99.90
26595;DHT22;14238;49.496;8.154;2024-03-23T16:09:23;7.60;99.90
26595;DHT22;14238;49.496;8.154;2024-03-23T16:11:48;7.60;99.90
26595;DHT22;14238;49.496;8.154;2024-03-23T16:14:14;7.40;99.90
26595;DHT22;14238;49.496;8.154;2024-03-23T16:16:39;6.90;99.90
26595;DHT22;14238;49.496;8.154;2024-03-23T16:19:05;6.70;99.90
26595;DHT22;14238;49.496;8.154;2024-03-23T16:21:31;6.50;99.90
26595;DHT22;14238;49.496;8.154;2024-03-23T16:23:57;6.50;99.90
26595;DHT22;14238;49.496;8.154;2024-03-23T16:26:23;6.70;99.90
26595;DHT22;14238;49.496;8.154;2024-03-23T16:28:49;6.50;99.90
26595;DHT22;14238;49.496;8.154;2024-03-23T16:31:15;6.50;99.90
26595;DHT22;14238;49.496;8.154;2024-03-23T16:33:41;6.50;99.90
26595;DHT22;14238;49.496;8.154;2024-03-23T16:36:07;6.40;99.90
26595;DHT22;14238;49.496;8.154;2024-03-23T16:38:34;6.40;99.90
26595;DHT22;14238;49.496;8.154;2024-03-23T16:41:02;6.40;99.90
26595;DHT22;14238;49.496;8.154;2024-03-23T16:43:28;6.20;99.90
26595;DHT22;14238;49.496;8.154;2024-03-23T16:45:59;6.20;99.90
26595;DHT22;14238;49.496;8.154;2024-03-23T16:48:26;6.10;99.90
26595;DHT22;14238;49.496;8.154;2024-03-23T16:50:52;6.00;99.90
26595;DHT22;14238;49.496;8.154;2024-03-23T16:53:18;5.90;99.90
26595;DHT22;14238;49.496;8.154;2024-03-23T16:55:44;5.70;99.90
26595;DHT22;14238;49.496;8.154;2024-03-23T16:58:10;5.70;99.90
26595;DHT22;14238;49.496;8.154;2024-03-23T17:00:35;5.60;99.90
26595;DHT22;14238;49.496;8.154;2024-03-23T17:03:02;5.60;99.90
26595;DHT22;14238;49.496;8.154;2024-03-23T17:05:28;5.60;99.90
26595;DHT22;14238;49.496;8.154;2024-03-23T17:07:53;5.60;99.90
26595;DHT22;14238;49.496;8.154;2024-03-23T17:10:19;5.50;99.90
26595;DHT22;14238;49.496;8.154;2024-03-23T17:12:44;5.60;99.90
26595;DHT22;14238;49.496;8.154;2024-03-23T17:15:10;5.70;99.90
26595;DHT22;14238;49.496;8.154;2024-03-23T17:17:37;5.80;99.90
26595;DHT22;14238;49.496;8.154;2024-03-23T17:20:03;5.80;99.90
26595;DHT22;14238;49.496;8.154;2024-03-23T17:22:29;5.90;99.90
26595;DHT22;14238;49.496;8.154;2024-03-23T17:24:55;5.70;99.90
26595;DHT22;14238;49.496;8.154;2024-03-23T17:27:20;5.70;99.90
26595;DHT22;14238;49.496;8.154;2024-03-23T17:29:46;5.70;99.90
26595;DHT22;14238;49.496;8.154;2024-03-23T17:32:13;5.70;99.90
26595;DHT22;14238;49.496;8.154;2024-03-23T17:34:38;5.70;99.90
26595;DHT22;14238;49.496;8.154;2024-03-23T17:37:04;5.60;99.90
26595;DHT22;14238;49.496;8.154;2024-03-23T17:39:32;5.60;99.90
26595;DHT22;14238;49.496;8.154;2024-03-23T17:41:58;5.50;99.90
26595;DHT22;14238;49.496;8.154;2024-03-23T17:44:24;5.60;99.90
26595;DHT22;14238;49.496;8.154;2024-03-23T17:46:50;5.50;99.90
26595;DHT22;14238;49.496;8.154;2024-03-23T17:49:16;5.50;99.90
26595;DHT22;14238;49.496;8.154;2024-03-23T17:51:45;5.60;99.90
26595;DHT22;14238;49.496;8.154;2024-03-23T17:54:10;5.40;99.90
26595;DHT22;14238;49.496;8.154;2024-03-23T17:56:38;5.30;99.90
26595;DHT22;14238;49.496;8.154;2024-03-23T17:59:04;5.30;99.90
26595;DHT22;14238;49.496;8.154;2024-03-23T18:01:31;5.20;99.90
26595;DHT22;14238;49.496;8.154;2024-03-23T18:03:57;5.20;99.90
26595;DHT22;14238;49.496;8.154;2024-03-23T18:06:22;5.20;99.90
26595;DHT22;14238;49.496;8.154;2024-03-23T18:08:48;5.10;99.90
26595;DHT22;14238;49.496;8.154;2024-03-23T18:11:13;5.10;99.90
26595;DHT22;14238;49.496;8.154;2024-03-23T18:13:39;5.00;99.90
26595;DHT22;14238;49.496;8.154;2024-03-23T18:16:05;4.90;99.90
26595;DHT22;14238;49.496;8.154;2024-03-23T18:18:31;4.90;99.90
26595;DHT22;14238;49.496;8.154;2024-03-23T18:21:01;5.00;99.90
26595;DHT22;14238;49.496;8.154;2024-03-23T18:23:26;5.00;99.90
26595;DHT22;14238;49.496;8.154;2024-03-23T18:25:55;4.90;99.90
26595;DHT22;14238;49.496;8.154;2024-03-23T18:28:21;4.80;99.90
26595;DHT22;14238;49.496;8.154;2024-03-23T18:30:56;4.90;99.90
26595;DHT22;14238;49.496;8.154;2024-03-23T18:33:22;5.00;99.90
26595;DHT22;14238;49.496;8.154;2024-03-23T18:35:51;4.90;99.90
26595;DHT22;14238;49.496;8.154;2024-03-23T18:38:18;4.90;99.90
26595;DHT22;14238;49.496;8.154;2024-03-23T18:40:46;4.80;99.90
26595;DHT22;14238;49.496;8.154;2024-03-23T18:43:13;4.80;99.90
26595;DHT22;14238;49.496;8.154;2024-03-23T18:45:51;4.70;99.90
26595;DHT22;14238;49.496;8.154;2024-03-23T18:48:20;4.70;99.90
26595;DHT22;14238;49.496;8.154;2024-03-23T18:50:45;4.70;99.90
26595;DHT22;14238;49.496;8.154;2024-03-23T18:53:11;4.60;99.90
26595;DHT22;14238;49.496;8.154;2024-03-23T18:55:38;4.70;99.90
26595;DHT22;14238;49.496;8.154;2024-03-23T18:58:04;4.70;99.90
26595;DHT22;14238;49.496;8.154;2024-03-23T19:00:30;4.60;99.90
26595;DHT22;14238;49.496;8.154;2024-03-23T19:02:56;4.70;99.90
26595;DHT22;14238;49.496;8.154;2024-03-23T19:05:22;4.60;99.90
26595;DHT22;14238;49.496;8.154;2024-03-23T19:07:48;4.60;99.90
26595;DHT22;14238;49.496;8.154;2024-03-23T19:10:13;4.60;99.90
26595;DHT22;14238;49.496;8.154;2024-03-23T19:12:39;4.60;99.90
26595;DHT22;14238;49.496;8.154;2024-03-23T19:15:08;4.60;99.90
26595;DHT22;14238;49.496;8.154;2024-03-23T19:17:34;4.50;99.90
26595;DHT22;14238;49.496;8.154;2024-03-23T19:20:00;4.60;99.90
26595;DHT22;14238;49.496;8.154;2024-03-23T19:22:26;4.60;99.90
26595;DHT22;14238;49.496;8.154;2024-03-23T19:24:52;4.60;99.90
26595;DHT22;14238;49.496;8.154;2024-03-23T19:27:18;4.60;99.90
26595;DHT22;14238;49.496;8.154;2024-03-23T19:29:43;4.60;99.90
26595;DHT22;14238;49.496;8.154;2024-03-23T19:32:09;4.60;99.90
26595;DHT22;14238;49.496;8.154;2024-03-23T19:34:34;4.50;99.90
26595;DHT22;14238;49.496;8.154;2024-03-23T19:37:00;4.60;99.90
26595;DHT22;14238;49.496;8.154;2024-03-23T19:39:25;4.60;99.90
26595;DHT22;14238;49.496;8.154;2024-03-23T19:41:51;4.70;99.90
26595;DHT22;14238;49.496;8.154;2024-03-23T19:44:16;4.70;99.90
26595;DHT22;14238;49.496;8.154;2024-03-23T19:46:42;4.70;99.90
26595;DHT22;14238;49.496;8.154;2024-03-23T19:49:09;4.70;99.90
26595;DHT22;14238;49.496;8.154;2024-03-23T19:51:34;4.60;99.90
26595;DHT22;14238;49.496;8.154;2024-03-23T19:54:00;4.60;99.90
26595;DHT22;14238;49.496;8.154;2024-03-23T19:56:25;4.60;99.90
26595;DHT22;14238;49.496;8.154;2024-03-23T19:58:51;4.60;99.90
26595;DHT22;14238;49.496;8.154;2024-03-23T20:01:17;4.60;99.90
26595;DHT22;14238;49.496;8.154;2024-03-23T20:03:49;4.60;99.90
26595;DHT22;14238;49.496;8.154;2024-03-23T20:06:15;4.60;99.90
26595;DHT22;14238;49.496;8.154;2024-03-23T20:08:42;4.60;99.90
26595;DHT22;14238;49.496;8.154;2024-03-23T20:11:07;4.60;99.90
26595;DHT22;14238;49.496;8.154;2024-03-23T20:13:34;4.50;99.90
26595;DHT22;14238;49.496;8.154;2024-03-23T20:15:59;4.60;99.90
26595;DHT22;14238;49.496;8.154;2024-03-23T20:18:28;4.60;99.90
26595;DHT22;14238;49.496;8.154;2024-03-23T20:20:55;4.60;99.90
26595;DHT22;14238;49.496;8.154;2024-03-23T20:23:22;4.60;99.90
26595;DHT22;14238;49.496;8.154;2024-03-23T20:25:54;4.60;99.90
26595;DHT22;14238;49.496;8.154;2024-03-23T20:28:21;4.60;99.90
26595;DHT22;14238;49.496;8.154;2024-03-23T20:30:47;4.70;99.90
26595;DHT22;14238;49.496;8.154;2024-03-23T20:33:14;4.70;99.90
26595;DHT22;14238;49.496;8.154;2024-03-23T20:35:48;4.70;99.90
26595;DHT22;14238;49.496;8.154;2024-03-23T20:38:14;4.70;99.90
26595;DHT22;14238;49.496;8.154;2024-03-23T20:40:40;4.70;99.90
26595;DHT22;14238;49.496;8.154;2024-03-23T20:43:07;4.70;99.90
26595;DHT22;14238;49.496;8.154;2024-03-23T20:45:42;4.70;99.90
26595;DHT22;14238;49.496;8.154;2024-03-23T20:48:07;4.70;99.90
26595;DHT22;14238;49.496;8.154;2024-03-23T20:50:33;4.70;99.90
26595;DHT22;14238;49.496;8.154;2024-03-23T20:52:59;4.70;99.90
26595;DHT22;14238;49.496;8.154;2024-03-23T20:55:24;4.70;99.90
26595;DHT22;14238;49.496;8.154;2024-03-23T20:57:50;4.70;99.90
26595;DHT22;14238;49.496;8.154;2024-03-23T21:00:18;4.70;99.90
26595;DHT22;14238;49.496;8.154;2024-03-23T21:02:44;4.70;99.90
26595;DHT22;14238;49.496;8.154;2024-03-23T21:05:09;4.80;99.90
26595;DHT22;14238;49.496;8.154;2024-03-23T21:07:35;4.80;99.90
26595;DHT22;14238;49.496;8.154;2024-03-23T21:10:02;4.80;99.90
26595;DHT22;14238;49.496;8.154;2024-03-23T21:12:27;4.80;99.90
26595;DHT22;14238;49.496;8.154;2024-03-23T21:14:53;4.70;99.90
26595;DHT22;14238;49.496;8.154;2024-03-23T21:17:19;4.70;99.90
26595;DHT22;14238;49.496;8.154;2024-03-23T21:19:48;4.70;99.90
26595;DHT22;14238;49.496;8.154;2024-03-23T21:22:14;4.70;99.90
26595;DHT22;14238;49.496;8.154;2024-03-23T21:24:40;4.70;99.90
26595;DHT22;14238;49.496;8.154;2024-03-23T21:27:05;4.70;99.90
26595;DHT22;14238;49.496;8.154;2024-03-23T21:29:32;4.60;99.90
26595;DHT22;14238;49.496;8.154;2024-03-23T21:31:57;4.60;99.90
26595;DHT22;14238;49.496;8.154;2024-03-23T21:34:23;4.70;99.90
26595;DHT22;14238;49.496;8.154;2024-03-23T21:36:49;4.60;99.90
26595;DHT22;14238;49.496;8.154;2024-03-23T21:39:15;4.60;99.90
26595;DHT22;14238;49.496;8.154;2024-03-23T21:41:43;4.60;99.90
26595;DHT22;14238;49.496;8.154;2024-03-23T21:44:08;4.60;99.90
26595;DHT22;14238;49.496;8.154;2024-03-23T21:46:35;4.60;99.90
26595;DHT22;14238;49.496;8.154;2024-03-23T21:49:00;4.50;99.90
26595;DHT22;14238;49.496;8.154;2024-03-23T21:51:26;4.60;99.90
26595;DHT22;14238;49.496;8.154;2024-03-23T21:53:51;4.60;99.90
26595;DHT22;14238;49.496;8.154;2024-03-23T21:56:17;4.60;99.90
26595;DHT22;14238;49.496;8.154;2024-03-23T21:58:42;4.60;99.90
26595;DHT22;14238;49.496;8.154;2024-03-23T22:01:08;4.50;99.90
26595;DHT22;14238;49.496;8.154;2024-03-23T22:03:34;4.50;99.90
26595;DHT22;14238;49.496;8.154;2024-03-23T22:05:59;4.50;99.90
26595;DHT22;14238;49.496;8.154;2024-03-23T22:08:25;4.60;99.90
26595;DHT22;14238;49.496;8.154;2024-03-23T22:10:52;4.60;99.90
26595;DHT22;14238;49.496;8.154;2024-03-23T22:13:20;4.60;99.90
26595;DHT22;14238;49.496;8.154;2024-03-23T22:15:46;4.60;99.90
26595;DHT22;14238;49.496;8.154;2024-03-23T22:18:12;4.60;99.90
26595;DHT22;14238;49.496;8.154;2024-03-23T22:20:38;4.70;99.90
26595;DHT22;14238;49.496;8.154;2024-03-23T22:23:06;4.70;99.90
26595;DHT22;14238;49.496;8.154;2024-03-23T22:25:32;4.60;99.90
26595;DHT22;14238;49.496;8.154;2024-03-23T22:27:57;4.60;99.90
26595;DHT22;14238;49.496;8.154;2024-03-23T22:30:23;4.60;99.90
26595;DHT22;14238;49.496;8.154;2024-03-23T22:32:49;4.70;99.90
26595;DHT22;14238;49.496;8.154;2024-03-23T22:35:15;4.70;99.90
26595;DHT22;14238;49.496;8.154;2024-03-23T22:37:43;4.70;99.90
26595;DHT22;14238;49.496;8.154;2024-03-23T22:40:09;4.70;99.90
26595;DHT22;14238;49.496;8.154;2024-03-23T22:42:35;4.70;99.90
26595;DHT22;14238;49.496;8.154;2024-03-23T22:45:01;4.70;99.90
26595;DHT22;14238;49.496;8.154;2024-03-23T22:47:27;4.60;99.90
26595;DHT22;14238;49.496;8.154;2024-03-23T22:49:52;4.60;99.90
26595;DHT22;14238;49.496;8.154;2024-03-23T22:52:18;4.50;99.90
26595;DHT22;14238;49.496;8.154;2024-03-23T22:54:43;4.60;99.90
26595;DHT22;14238;49.496;8.154;2024-03-23T22:57:09;4.60;99.90
26595;DHT22;14238;49.496;8.154;2024-03-23T22:59:35;4.60;99.90
26595;DHT22;14238;49.496;8.154;2024-03-23T23:02:00;4.60;99.90
26595;DHT22;14238;49.496;8.154;2024-03-23T23:04:26;4.70;99.90
26595;DHT22;14238;49.496;8.154;2024-03-23T23:06:51;4.70;99.90
26595;DHT22;14238;49.496;8.154;2024-03-23T23:09:17;4.70;99.90
26595;DHT22;14238;49.496;8.154;2024-03-23T23:11:43;4.60;99.90
26595;DHT22;14238;49.496;8.154;2024-03-23T23:14:09;4.60;99.90
26595;DHT22;14238;49.496;8.154;2024-03-23T23:16:34;4.60;99.90
26595;DHT22;14238;49.496;8.154;2024-03-23T23:19:02;4.60;99.90
26595;DHT22;14238;49.496;8.154;2024-03-23T23:21:27;4.70;99.90
26595;DHT22;14238;49.496;8.154;2024-03-23T23:23:53;4.70;99.90
26595;DHT22;14238;49.496;8.154;2024-03-23T23:26:18;4.80;99.90
26595;DHT22;14238;49.496;8.154;2024-03-23T23:28:45;4.80;99.90
26595;DHT22;14238;49.496;8.154;2024-03-23T23:31:10;4.80;99.90
26595;DHT22;14238;49.496;8.154;2024-03-23T23:33:36;4.80;99.90
26595;DHT22;14238;49.496;8.154;2024-03-23T23:36:01;4.80;99.90
26595;DHT22;14238;49.496;8.154;2024-03-23T23:38:27;4.80;99.90
26595;DHT22;14238;49.496;8.154;2024-03-23T23:40:54;4.80;99.90
26595;DHT22;14238;49.496;8.154;2024-03-23T23:43:19;4.80;99.90
26595;DHT22;14238;49.496;8.154;2024-03-23T23:45:45;4.70;99.90
26595;DHT22;14238;49.496;8.154;2024-03-23T23:48:11;4.70;99.90
26595;DHT22;14238;49.496;8.154;2024-03-23T23:50:37;4.70;99.90
26595;DHT22;14238;49.496;8.154;2024-03-23T23:53:03;4.80;99.90
26595;DHT22;14238;49.496;8.154;2024-03-23T23:55:29;4.80;99.90
26595;DHT22;14238;49.496;8.154;2024-03-23T23:57:55;4.80;99.90
